Metelen UL

METAR EDDG TAF EDDG
18 °C
°C
/
°C
38m
Edad
19:57:50
LT
17:57
UTC
0 ft

1.000

2.000

3.000

4.000

5.000

VFR
<?= Yii::t('app', 'Wind direction') ?> <?= Yii::t('app', 'of'); ?>
040°
21:40
Puesta de sol
52%
Humedad
Cizalladura del viento
Cerrado/Nieve
Alcance visual RWY
Estado de la RWY
Visibilidad vert.
Visibilidad mínima
CAVOK
Tendencia
Corrección
Informe especial
1020 hPa
QNH
METAR EDDG 021720Z AUTO 04008KT 350V080 CAVOK 18/08 Q1020 NOSIG
Despejado
1 kt
1 kt
20:00
VFR
5 kt
21:00
VFR
5 kt
22:00
VFR
5 kt
23:00
VFR
5 kt
00:00
VFR
5 kt
01:00
VFR
5 kt
02:00
VFR
5 kt
10 km+
Visibilidad
No
Cielo nuboso
8 kt
Viento
metar-taf.com/DE-0389

Metar-Taf.com

Decodificador visual

Nosotros y terceros seguimos tu comportamiento en Internet en nuestro sitio web con cookies. Si continúas, asumimos que estás de acuerdo con nuestra Política de cookies.